createdAt,value
2023-03-23T00:00:40.664Z,100
2023-03-23T00:15:39.428Z,100
2023-03-23T00:30:40.540Z,100
2023-03-23T00:45:40.690Z,100
2023-03-23T01:00:41.187Z,100
2023-03-23T01:15:45.773Z,100
2023-03-23T01:30:57.504Z,100
2023-03-23T01:45:44.488Z,100
2023-03-23T02:00:41.531Z,100
2023-03-23T02:15:43.523Z,100
2023-03-23T02:30:44.460Z,100
2023-03-23T02:45:45.129Z,100
2023-03-23T03:01:11.058Z,100
2023-03-23T03:15:49.544Z,100
2023-03-23T03:30:54.777Z,100
2023-03-23T03:45:45.914Z,100
2023-03-23T04:00:47.169Z,100
2023-03-23T04:16:14.361Z,100
2023-03-23T04:31:06.467Z,100
2023-03-23T04:45:50.893Z,100
2023-03-23T05:00:49.871Z,100
2023-03-23T05:32:09.193Z,100
2023-03-23T05:46:39.641Z,100
2023-03-23T06:01:50.657Z,100
2023-03-23T06:16:43.065Z,100
2023-03-23T06:31:42.433Z,100
2023-03-23T06:46:38.869Z,100
2023-03-23T07:01:39.146Z,100
2023-03-23T07:16:42.188Z,100
2023-03-23T07:31:40.673Z,100
2023-03-23T07:47:09.098Z,100
2023-03-23T08:01:42.123Z,100
2023-03-23T08:16:42.449Z,100
2023-03-23T08:31:43.068Z,100
2023-03-23T08:46:50.736Z,100
2023-03-23T09:01:54.929Z,100
2023-03-23T09:16:47.259Z,100
2023-03-23T09:31:45.642Z,87.2
2023-03-23T09:46:45.943Z,67.8
2023-03-23T10:01:52.233Z,67.8
2023-03-23T10:16:49.318Z,70.1
2023-03-23T10:31:49.886Z,72.1
2023-03-23T10:46:49.772Z,66.5
2023-03-23T11:01:48.276Z,59
2023-03-23T11:16:48.713Z,59.6
2023-03-23T11:31:49.539Z,60.3
2023-03-23T11:46:50.201Z,52.7
2023-03-23T12:01:53.128Z,52.7
2023-03-23T12:16:51.074Z,51.5
2023-03-23T12:31:51.810Z,55.5
2023-03-23T12:46:51.877Z,55.8
2023-03-23T13:01:53.477Z,59.2
2023-03-23T13:16:53.062Z,63.4
2023-03-23T13:31:56.947Z,63.4
2023-03-23T13:46:58.728Z,63.9
2023-03-23T14:01:59.551Z,67.9
2023-03-23T14:17:00.038Z,73.2
2023-03-23T14:32:01.057Z,69.5
2023-03-23T14:47:01.170Z,70.3
2023-03-23T15:02:02.051Z,71
2023-03-23T15:17:08.322Z,71
2023-03-23T15:32:19.181Z,74.6
2023-03-23T15:47:08.225Z,79.7
2023-03-23T16:02:03.912Z,90.6
2023-03-23T16:17:04.875Z,89.5
2023-03-23T16:32:08.118Z,89.5
2023-03-23T16:47:05.579Z,100
2023-03-23T17:02:08.932Z,100
2023-03-23T17:17:06.947Z,100
2023-03-23T17:32:08.291Z,100
2023-03-23T17:47:10.723Z,100
2023-03-23T18:02:08.928Z,100
2023-03-23T18:17:08.471Z,100
2023-03-23T18:32:13.268Z,100
2023-03-23T19:02:10.221Z,100
2023-03-23T19:17:13.200Z,100
2023-03-23T20:00:02.648Z,100
2023-03-23T20:02:21.990Z,100
2023-03-23T20:17:15.583Z,100
2023-03-23T20:32:24.046Z,100
2023-03-23T20:47:16.455Z,100
2023-03-23T21:02:17.107Z,100
2023-03-23T21:17:15.472Z,100
2023-03-23T21:32:16.116Z,100
2023-03-23T21:47:16.008Z,100
2023-03-23T22:02:16.323Z,100
2023-03-23T22:32:19.140Z,100
2023-03-23T22:47:17.403Z,100
2023-03-23T23:00:49.144Z,100
2023-03-23T23:30:41.422Z,100
2023-03-23T23:45:41.792Z,100
